Data for 04/15/2005

Time Sea-Level Adjusted Pressure Absolute Pressure Temperature Relative Humidity Dew Point   
(mb) (inHg) (mb) (inHg) (C) (F) (%) (C) (F)
00:05 1022 30.18 852 25.16 0.6 33 47 -9.6 14.8
00:10 1022 30.18 852 25.16 0.5 32.9 46 -9.7 14.5
00:15 1022 30.18 852 25.16 0.6 33 45 -10.1 13.9
00:20 1022 30.18 852 25.16 0.6 33 45 -10 14.1
00:25 1023 30.21 852 25.16 0.4 32.7 46 -10 14
00:30 1023 30.21 852 25.16 0.5 32.9 46 -9.9 14.1
00:35 1023 30.21 852 25.16 0.3 32.6 48 -9.5 14.8
00:40 1023 30.21 852 25.16 -0.2 31.6 50 -9.3 15.2
00:45 1023 30.21 852 25.16 -0.5 31 53 -9.1 15.7
00:50 1023 30.21 852 25.16 -0.8 30.6 54 -9 15.8
00:55 1023 30.21 852 25.16 -0.8 30.5 53 -9.2 15.5
01:00 1023 30.21 852 25.16 -0.6 30.9 53 -9 15.7
01:05 1023 30.21 852 25.16 -0.8 30.6 54 -9 15.7
01:10 1023 30.21 852 25.16 -0.7 30.7 54 -9 15.8
01:15 1023 30.21 852 25.16 -0.9 30.3 55 -8.9 15.9
01:20 1023 30.21 852 25.16 -0.8 30.5 53 -9.1 15.5
01:25 1023 30.21 852 25.16 -0.7 30.8 53 -9.1 15.6
01:30 1023 30.21 852 25.16 -0.7 30.8 53 -9 15.7
01:35 1023 30.21 852 25.16 -0.9 30.5 55 -8.9 16
01:40 1023 30.21 852 25.16 -1.2 29.8 57 -8.6 16.6
01:45 1023 30.21 852 25.16 -1.4 29.4 57 -8.8 16.1
01:50 1023 30.21 852 25.16 -1.3 29.7 56 -8.9 16
01:55 1023 30.21 852 25.16 -1 30.1 56 -8.7 16.3
02:00 1023 30.21 852 25.16 -1 30.1 57 -8.6 16.5
02:05 1023 30.21 852 25.16 -0.9 30.3 55 -8.8 16.2
02:10 1023 30.21 852 25.16 -0.7 30.8 56 -8.4 16.9
02:15 1023 30.21 852 25.16 -1.1 30.1 58 -8.4 17
02:20 1023 30.21 852 25.16 -1.3 29.7 58 -8.5 16.8
02:25 1023 30.21 852 25.16 -1.2 29.8 58 -8.4 16.9
02:30 1023 30.21 852 25.16 -1.2 29.9 58 -8.4 16.9
02:35 1023 30.21 852 25.16 -1.2 29.8 60 -8.1 17.5
02:40 1023 30.21 852 25.16 -1.5 29.4 60 -8.2 17.2
02:45 1023 30.21 852 25.16 -1.5 29.3 60 -8.3 17
02:50 1023 30.21 852 25.16 -1.6 29.2 60 -8.4 16.8
02:55 1023 30.21 852 25.16 -1.5 29.3 59 -8.5 16.7
03:00 1023 30.21 852 25.16 -1.3 29.6 56 -8.9 15.9
03:05 1023 30.21 853 25.19 -0.9 30.4 55 -8.8 16.2
03:10 1023 30.21 853 25.19 -0.9 30.4 56 -8.7 16.4
03:15 1023 30.21 853 25.19 -0.9 30.3 55 -8.8 16.2
03:20 1023 30.21 853 25.19 -0.9 30.3 55 -8.8 16.1
03:25 1023 30.21 853 25.19 -0.8 30.5 55 -8.7 16.3
03:30 1023 30.21 853 25.19 -0.8 30.6 55 -8.7 16.4
03:35 1023 30.21 853 25.19 -0.8 30.6 56 -8.5 16.7
03:40 1024 30.24 853 25.19 -0.8 30.5 56 -8.5 16.7
03:45 1024 30.24 853 25.19 -0.9 30.4 57 -8.4 16.8
03:50 1023 30.21 853 25.19 -0.9 30.3 57 -8.5 16.8
03:55 1023 30.21 853 25.19 -0.9 30.4 57 -8.3 17.1
04:00 1024 30.24 853 25.19 -1 30.2 58 -8.2 17.2
04:05 1024 30.24 853 25.19 -1.2 29.9 59 -8.3 17.1
04:10 1024 30.24 853 25.19 -1.2 29.8 59 -8.3 17
04:15 1024 30.24 853 25.19 -1.2 29.8 59 -8.1 17.4
04:20 1024 30.24 853 25.19 -1.7 28.9 61 -8.2 17.3
04:25 1024 30.24 853 25.19 -1.8 28.7 62 -8.1 17.4
04:30 1024 30.24 853 25.19 -1.9 28.6 63 -8.1 17.4
04:35 1024 30.24 853 25.19 -1.7 29 61 -8.2 17.3
04:40 1024 30.24 853 25.19 -1.5 29.4 60 -8.2 17.2
04:45 1024 30.24 853 25.19 -1.1 29.9 59 -8.1 17.4
04:50 1024 30.24 853 25.19 -1.1 30.1 59 -8.1 17.5
04:55 1024 30.24 853 25.19 -1.1 30.1 60 -8 17.6
05:00 1024 30.24 853 25.19 -1.2 29.8 60 -8 17.5
05:05 1024 30.24 853 25.19 -1.3 29.7 60 -8 17.6
05:10 1024 30.24 853 25.19 -1.4 29.6 61 -8 17.7
05:15 1024 30.24 853 25.19 -1.5 29.4 61 -8 17.6
05:20 1024 30.24 853 25.19 -1.4 29.4 60 -8.1 17.4
05:25 1024 30.24 853 25.19 -1.3 29.6 60 -8.1 17.4
05:30 1024 30.24 853 25.19 -1.3 29.7 60 -8 17.6
05:35 1024 30.24 853 25.19 -1.4 29.5 60 -8.1 17.4
05:40 1024 30.24 853 25.19 -1.4 29.6 61 -8 17.6
05:45 1024 30.24 853 25.19 -1.4 29.4 61 -8 17.6
05:50 1024 30.24 853 25.19 -1.4 29.4 61 -8 17.5
05:55 1024 30.24 853 25.19 -1.4 29.4 61 -8.1 17.5
06:00 1024 30.24 853 25.19 -1.6 29.2 61 -8 17.5
06:05 1024 30.24 853 25.19 -1.6 29.2 61 -8.1 17.4
06:10 1024 30.24 853 25.19 -1.9 28.6 63 -8 17.6
06:15 1024 30.24 853 25.19 -2.5 27.5 65 -8.3 17.1
06:20 1024 30.24 853 25.19 -2.5 27.5 64 -8.4 17
06:25 1024 30.24 853 25.19 -2.4 27.6 64 -8.4 16.8
06:30 1024 30.24 853 25.19 -2.4 27.6 64 -8.4 16.8
06:35 1024 30.24 853 25.19 -2.9 26.8 66 -8.4 17
06:40 1024 30.24 853 25.19 -3.1 26.4 66 -8.5 16.6
06:45 1024 30.24 853 25.19 -3.1 26.4 66 -8.6 16.6
06:50 1024 30.24 853 25.19 -3.1 26.3 66 -8.6 16.6
06:55 1024 30.24 853 25.19 -3.1 26.4 66 -8.7 16.4
07:00 1024 30.24 853 25.19 -2.8 27 64 -8.7 16.4
07:05 1024 30.24 853 25.19 -2.6 27.2 64 -8.6 16.5
07:10 1024 30.24 853 25.19 -2.5 27.6 63 -8.7 16.4
07:15 1024 30.24 853 25.19 -2.3 27.8 63 -8.5 16.7
07:20 1024 30.24 853 25.19 -2.4 27.6 63 -8.5 16.7
07:25 1024 30.24 853 25.19 -2.3 27.8 62 -8.7 16.4
07:30 1024 30.24 853 25.19 -2 28.4 61 -8.4 16.8
07:35 1024 30.24 853 25.19 -1.6 29.2 59 -8.5 16.7
07:40 1024 30.24 853 25.19 -1.1 30 58 -8.3 17
07:45 1024 30.24 853 25.19 -1 30.2 58 -8.2 17.3
07:50 1024 30.24 854 25.22 -0.9 30.4 57 -8.3 17
07:55 1024 30.24 854 25.22 -0.7 30.8 58 -8 17.6
08:00 1024 30.24 854 25.22 -1.2 29.8 59 -8.3 17
08:05 1025 30.27 854 25.22 -1 30.1 59 -8.1 17.4
08:10 1025 30.27 854 25.22 -1 30.2 59 -8.1 17.4
08:15 1025 30.27 854 25.22 -0.8 30.6 58 -8.1 17.4
08:20 1025 30.27 854 25.22 -0.8 30.6 58 -8 17.7
08:25 1024 30.24 854 25.22 -0.2 31.7 55 -8.1 17.5
08:30 1025 30.27 854 25.22 0.3 32.5 52 -8.5 16.8
08:35 1025 30.27 854 25.22 1.1 34 50 -8.1 17.4
08:40 1025 30.27 854 25.22 1.5 34.8 49 -8.1 17.5
08:45 1025 30.27 854 25.22 1.5 34.7 49 -8.1 17.5
08:50 1025 30.27 854 25.22 1.8 35.3 48 -8.1 17.4
08:55 1025 30.27 854 25.22 1.9 35.4 47 -8.3 17.1
09:00 1025 30.27 854 25.22 1.9 35.4 45 -8.7 16.3
09:05 1025 30.27 854 25.22 2.1 35.8 43 -9.3 15.3
09:10 1025 30.27 854 25.22 2.5 36.5 42 -9 15.8
09:15 1025 30.27 854 25.22 2.5 36.4 42 -9.1 15.5
09:20 1025 30.27 854 25.22 3 37.5 41 -9 15.8
09:25 1025 30.27 854 25.22 3 37.4 42 -8.7 16.3
09:30 1025 30.27 854 25.22 3.8 38.8 39 -8.8 16.1
09:35 1025 30.27 854 25.22 4.2 39.5 39 -8.4 16.8
09:40 1025 30.27 854 25.22 4 39.1 41 -8.1 17.4
09:45 1025 30.27 854 25.22 3.4 38.2 41 -8.5 16.7
09:50 1025 30.27 854 25.22 3.7 38.6 40 -8.7 16.3
09:55 1025 30.27 854 25.22 3.9 39 40 -8.6 16.6
10:00 1025 30.27 854 25.22 4 39.2 40 -8.5 16.6
10:05 1025 30.27 854 25.22 3.9 39 39 -8.8 16.1
10:10 1025 30.27 854 25.22 4.1 39.3 40 -8.3 17.1
10:15 1024 30.24 854 25.22 3.5 38.4 40 -8.8 16.1
10:20 1024 30.24 854 25.22 4.1 39.5 39 -8.7 16.3
10:25 1024 30.24 854 25.22 4 39.3 40 -8.3 17.1
10:30 1024 30.24 854 25.22 3.1 37.5 42 -8.7 16.3
10:35 1024 30.24 854 25.22 3.9 39 38 -9.2 15.5
10:40 1024 30.24 854 25.22 4.6 40.3 39 -8.2 17.2
10:45 1024 30.24 854 25.22 5.1 41.2 36 -8.9 15.9
10:50 1024 30.24 854 25.22 5.6 42 35 -8.8 16.1
10:55 1024 30.24 853 25.19 5.5 41.9 34 -9.1 15.6
11:00 1024 30.24 853 25.19 5.6 42 34 -9 15.8
11:05 1024 30.24 853 25.19 4.6 40.3 38 -8.5 16.7
11:10 1024 30.24 853 25.19 5.1 41.2 35 -9.1 15.7
11:15 1024 30.24 853 25.19 5.2 41.4 36 -8.5 16.7
11:20 1024 30.24 853 25.19 5.8 42.4 32 -9.5 14.9
11:25 1024 30.24 853 25.19 6 42.8 32 -9.5 14.9
11:30 1024 30.24 853 25.19 6 42.7 33 -9.1 15.6
11:35 1024 30.24 853 25.19 6 42.8 32 -9.4 15
11:40 1024 30.24 853 25.19 6.5 43.6 32 -9 15.8
11:45 1024 30.24 853 25.19 6.7 44.1 31 -9.3 15.3
11:50 1024 30.24 853 25.19 7.1 44.7 29 -9.6 14.7
11:55 1024 30.24 853 25.19 6.9 44.5 31 -9.2 15.4
12:00 1024 30.24 853 25.19 6.5 43.7 32 -9.1 15.6
12:05 1024 30.24 853 25.19 6.4 43.4 29 -10.4 13.3
12:10 1024 30.24 853 25.19 6.9 44.3 30 -9.7 14.6
12:15 1024 30.24 853 25.19 7.2 44.9 29 -9.8 14.4
12:20 1023 30.21 853 25.19 7.9 46.2 28 -9.5 14.9
12:25 1023 30.21 853 25.19 8.2 46.7 26 -10.2 13.7
12:30 1023 30.21 853 25.19 8.4 47.1 26 -10.1 13.8
12:35 1023 30.21 853 25.19 8.5 47.2 25 -10.4 13.3
12:40 1023 30.21 853 25.19 8.7 47.6 22 -12.1 10.3
12:45 1023 30.21 852 25.16 8.9 48 22 -11.5 11.3
12:50 1023 30.21 852 25.16 9.1 48.5 22 -11.7 11
12:55 1023 30.21 852 25.16 9.3 48.7 23 -10.7 12.7
13:00 1023 30.21 852 25.16 8 46.4 28 -9.3 15.3
13:05 1023 30.21 852 25.16 8.1 46.5 25 -11 12.3
13:10 1023 30.21 852 25.16 8.8 47.8 25 -10.2 13.6
13:15 1023 30.21 852 25.16 8 46.4 26 -10.2 13.7
13:20 1023 30.21 852 25.16 8.9 48.1 24 -10.4 13.3
13:25 1023 30.21 852 25.16 8.9 48 25 -10.2 13.6
13:30 1023 30.21 852 25.16 9.1 48.3 24 -10.5 13.1
13:35 1023 30.21 852 25.16 9.5 49.1 24 -9.9 14.2
13:40 1023 30.21 852 25.16 9.5 49.2 23 -10.7 12.8
13:45 1023 30.21 852 25.16 8.8 47.9 23 -11.5 11.3
13:50 1023 30.21 852 25.16 9.3 48.7 22 -11.6 11.1
13:55 1022 30.18 852 25.16 8.9 48 22 -11.8 10.8
14:00 1022 30.18 852 25.16 10.4 50.7 19 -12.3 9.9
14:05 1022 30.18 852 25.16 10.8 51.5 19 -11.8 10.8
14:10 1022 30.18 851 25.13 11.2 52.2 18 -12.4 9.7
14:15 1022 30.18 852 25.16 11.2 52.2 18 -12.1 10.3
14:20 1022 30.18 851 25.13 10.6 51 19 -12.2 10.1
14:25 1022 30.18 851 25.13 10 49.9 19 -12.7 9.1
14:30 1022 30.18 851 25.13 11.4 52.4 16 -13.8 7.2
14:35 1022 30.18 851 25.13 11.7 53.1 18 -11.9 10.5
14:40 1022 30.18 851 25.13 11.4 52.6 17 -13 8.6
14:45 1022 30.18 851 25.13 11.5 52.6 18 -12 10.4
14:50 1022 30.18 851 25.13 10.5 50.8 19 -12.2 10
14:55 1022 30.18 851 25.13 11.2 52.1 20 -11 12.3
15:00 1022 30.18 851 25.13 10.4 50.6 20 -11.9 10.6
15:05 1022 30.18 851 25.13 10.1 50.2 21 -11.4 11.6
15:10 1022 30.18 851 25.13 10.5 50.9 20 -11.5 11.2
15:15 1022 30.18 851 25.13 10.6 51.1 19 -11.9 10.6
15:20 1022 30.18 851 25.13 11.2 52.2 19 -11.7 11
15:25 1021 30.15 851 25.13 11.4 52.5 19 -11.4 11.5
15:30 1021 30.15 851 25.13 11.8 53.3 17 -12.7 9.2
15:35 1021 30.15 851 25.13 12.2 53.9 17 -12.2 10
15:40 1021 30.15 850 25.1 11.8 53.2 19 -11.2 11.9
15:45 1021 30.15 850 25.1 11.6 52.8 18 -11.9 10.6
15:50 1021 30.15 850 25.1 11.2 52.2 19 -11.4 11.4
15:55 1021 30.15 850 25.1 11.7 53 19 -11.1 12.1
16:00 1021 30.15 850 25.1 11.5 52.7 19 -11.3 11.6
16:05 1021 30.15 850 25.1 11.6 52.8 18 -12 10.4
16:10 1021 30.15 850 25.1 12.5 54.4 16 -12.4 9.7
16:15 1021 30.15 850 25.1 12.4 54.3 20 -10.1 13.7
16:20 1021 30.15 850 25.1 11.8 53.2 19 -11.3 11.6
16:25 1021 30.15 850 25.1 12.3 54.2 18 -11.5 11.3
16:30 1021 30.15 850 25.1 12.5 54.5 17 -11.9 10.5
16:35 1021 30.15 850 25.1 12 53.5 19 -10.8 12.6
16:40 1021 30.15 850 25.1 11.7 53.1 18 -11.8 10.7
16:45 1021 30.15 850 25.1 12.6 54.7 17 -11.6 11.1
16:50 1021 30.15 850 25.1 12.8 55.1 18 -10.8 12.5
16:55 1021 30.15 850 25.1 12.5 54.6 18 -11.4 11.4
17:00 1021 30.15 850 25.1 12.6 54.6 18 -11.3 11.7
17:05 1021 30.15 850 25.1 12.3 54.2 18 -11.5 11.3
17:10 1021 30.15 850 25.1 12 53.5 18 -11.3 11.6
17:15 1021 30.15 850 25.1 11.7 53.1 19 -11 12.2
17:20 1021 30.15 850 25.1 11.6 53 20 -10.8 12.5
17:25 1021 30.15 850 25.1 12.1 53.7 18 -11.6 11.1
17:30 1021 30.15 850 25.1 12.4 54.3 18 -11.2 11.9
17:35 1021 30.15 850 25.1 12.4 54.3 18 -10.9 12.3
17:40 1021 30.15 850 25.1 12.1 53.7 19 -11 12.1
17:45 1021 30.15 850 25.1 12.1 53.8 19 -11 12.1
17:50 1021 30.15 850 25.1 12.3 54.1 19 -11 12.2
17:55 1021 30.15 850 25.1 12 53.5 19 -11.3 11.7
18:00 1021 30.15 850 25.1 11.8 53.2 19 -11.1 12.1
18:05 1020 30.12 850 25.1 11 51.8 19 -11.5 11.3
18:10 1020 30.12 850 25.1 11.5 52.7 19 -11.6 11.2
18:15 1020 30.12 850 25.1 11.6 52.9 19 -11.5 11.4
18:20 1020 30.12 850 25.1 11.8 53.3 19 -11.3 11.7
18:25 1020 30.12 850 25.1 11.8 53.3 19 -11.1 11.9
18:30 1020 30.12 850 25.1 11.9 53.5 19 -11.2 11.9
18:35 1020 30.12 850 25.1 11.5 52.7 19 -11.1 12
18:40 1020 30.12 850 25.1 11 51.9 20 -11.2 11.9
18:45 1020 30.12 849 25.07 10.5 50.8 21 -11.1 12
18:50 1020 30.12 849 25.07 10.6 51.1 21 -10.8 12.6
18:55 1020 30.12 849 25.07 10.6 51.1 20 -11.2 11.8
19:00 1020 30.12 849 25.07 10.6 51 21 -10.9 12.3
19:05 1020 30.12 849 25.07 10.9 51.6 20 -11.3 11.6
19:10 1020 30.12 849 25.07 11 51.9 21 -10.8 12.6
19:15 1020 30.12 849 25.07 10.5 50.9 21 -10.7 12.7
19:20 1020 30.12 849 25.07 10 50.1 22 -10.7 12.8
19:25 1020 30.12 849 25.07 10.1 50.2 21 -11 12.2
19:30 1020 30.12 849 25.07 10.3 50.5 22 -10.6 13
19:35 1020 30.12 849 25.07 10.5 50.8 21 -10.9 12.5
19:40 1020 30.12 850 25.1 10.1 50.2 22 -10.8 12.6
19:45 1020 30.12 850 25.1 10.3 50.5 22 -10.6 12.9
19:50 1020 30.12 850 25.1 10.3 50.5 22 -10.3 13.4
19:55 1020 30.12 850 25.1 10.3 50.6 22 -10.4 13.3
20:00 1020 30.12 850 25.1 10.2 50.4 22 -10.3 13.5
20:05 1020 30.12 850 25.1 10.1 50.2 23 -10.3 13.4
20:10 1021 30.15 850 25.1 9.9 49.8 23 -10.2 13.7
20:15 1021 30.15 850 25.1 9.9 49.7 23 -10.2 13.6
20:20 1021 30.15 850 25.1 9.7 49.5 24 -10.1 13.9
20:25 1021 30.15 850 25.1 9.6 49.3 24 -10.2 13.7
20:30 1021 30.15 850 25.1 9.5 49.2 24 -10.2 13.6
20:35 1021 30.15 850 25.1 9.6 49.2 24 -10.1 13.8
20:40 1021 30.15 850 25.1 9.4 49 24 -10 14
20:45 1021 30.15 850 25.1 9.2 48.6 24 -10.3 13.5
20:50 1021 30.15 850 25.1 8.9 48 27 -9.1 15.6
20:55 1021 30.15 850 25.1 7.8 46 31 -8.3 17
21:00 1021 30.15 850 25.1 6.6 43.8 35 -7.9 17.7
21:05 1021 30.15 850 25.1 5.6 42.1 38 -7.6 18.3
21:10 1021 30.15 850 25.1 5.2 41.4 39 -7.7 18.1
21:15 1021 30.15 850 25.1 5.2 41.4 39 -7.6 18.3
21:20 1021 30.15 850 25.1 5.2 41.3 38 -7.9 17.7
21:25 1021 30.15 850 25.1 5 41.1 39 -7.9 17.8
21:30 1021 30.15 850 25.1 5.1 41.2 38 -8.1 17.5
21:35 1021 30.15 850 25.1 5.1 41.2 38 -8.1 17.5
21:40 1021 30.15 850 25.1 4.9 40.8 39 -8 17.6
21:45 1021 30.15 850 25.1 4.7 40.5 39 -8 17.6
21:50 1021 30.15 850 25.1 4.6 40.4 39 -8 17.6
21:55 1021 30.15 850 25.1 4.6 40.3 39 -8.1 17.5
22:00 1021 30.15 850 25.1 4.7 40.4 39 -8.3 17.1
22:05 1021 30.15 850 25.1 4.8 40.6 38 -8.3 17.1
22:10 1021 30.15 851 25.13 4.6 40.3 40 -8 17.6
22:15 1021 30.15 850 25.1 4.2 39.6 41 -8 17.6
22:20 1021 30.15 850 25.1 3.7 38.6 42 -7.9 17.7
22:25 1021 30.15 850 25.1 3.4 38.1 43 -8.1 17.4
22:30 1021 30.15 850 25.1 3.3 38 42 -8.3 17
22:35 1021 30.15 850 25.1 3.3 38 43 -8.1 17.5
22:40 1021 30.15 850 25.1 3.1 37.6 44 -7.9 17.8
22:45 1021 30.15 850 25.1 3.2 37.8 44 -7.9 17.7
22:50 1021 30.15 850 25.1 3.6 38.4 41 -8.4 17
22:55 1021 30.15 850 25.1 4.1 39.3 41 -8 17.5
23:00 1021 30.15 850 25.1 3.4 38.1 45 -7.5 18.5
23:05 1021 30.15 850 25.1 2.6 36.8 46 -8 17.7
23:10 1021 30.15 850 25.1 2.5 36.5 45 -8.2 17.3
23:15 1021 30.15 850 25.1 2.5 36.5 45 -8.2 17.3
23:20 1021 30.15 850 25.1 2.3 36.1 47 -8 17.6
23:25 1021 30.15 850 25.1 2.1 35.8 47 -7.9 17.7
23:30 1021 30.15 850 25.1 2.3 36.1 45 -8.5 16.7
23:35 1021 30.15 850 25.1 2.7 36.8 42 -9 15.9
23:40 1021 30.15 850 25.1 3.1 37.6 41 -8.8 16.2
23:45 1021 30.15 850 25.1 3.1 37.5 42 -8.7 16.4
23:50 1021 30.15 850 25.1 3 37.4 41 -9 15.8
23:55 1021 30.15 850 25.1 3.3 38 39 -9.3 15.2
24:00 1021 30.15 850 25.1 3.6 38.4 40 -8.9 16